Alta, Wyoming
Current Conditions -  °F | °C
As of 11:56 PM on Saturday 25 Oct 2014 (Local Time) from KDIJ Reporting Station
Light Rain Light Rain  
Wind Chill:   Ceiling: 6000
Heat Index:   Visibility: 10mi
Dew Point:   Wind: 16mph
Humidity: 77%   Direction: 290°WNW
Pressure: 29.9"   Gusts: NA
Location:  43.77°N, 110.98°W
Report Text: KDIJ 260556Z AUTO 29014KT 10SM -RA FEW002 SCT045 BKN060 09/05 A2990 RMK AO2 55010 60000 T00880050 10177 20088 402160005 BKN V SCT LTG DSNT N RAB27 P0000 WSHFT 0523 PK WND 25035/0534 SLP050
Loading
Personal Weather Stations






























Interactive Weather Map
Tropical Storm Tracking
New forecast layout! Learn more

10-Day Weather Forecast

Advertisements
Track Severe Weather on mobile